createdAt,value
2019-05-21T00:00:56.754Z,16.10
2019-05-21T00:05:00.479Z,16.10
2019-05-21T00:09:04.718Z,16.10
2019-05-21T00:13:08.183Z,16.00
2019-05-21T00:17:12.415Z,16.10
2019-05-21T00:21:15.899Z,16.10
2019-05-21T00:25:19.491Z,16.10
2019-05-21T00:29:58.853Z,16.10
2019-05-21T00:34:44.001Z,16.10
2019-05-21T00:39:19.996Z,16.10
2019-05-21T00:43:29.186Z,16.10
2019-05-21T00:47:32.654Z,16.20
2019-05-21T00:51:36.190Z,16.20
2019-05-21T00:55:39.931Z,16.20
2019-05-21T00:59:43.743Z,16.20
2019-05-21T01:03:47.202Z,16.20
2019-05-21T01:07:50.651Z,16.30
2019-05-21T01:11:54.445Z,16.20
2019-05-21T01:15:57.932Z,16.20
2019-05-21T01:20:01.682Z,16.30
2019-05-21T01:24:05.671Z,16.30
2019-05-21T01:28:09.415Z,16.30
2019-05-21T01:32:12.894Z,16.30
2019-05-21T01:36:16.391Z,16.20
2019-05-21T01:40:19.928Z,16.20
2019-05-21T01:44:23.740Z,16.20
2019-05-21T01:48:27.225Z,16.20
2019-05-21T01:52:30.743Z,16.20
2019-05-21T01:56:34.217Z,16.10
2019-05-21T02:00:37.704Z,16.10
2019-05-21T02:04:41.504Z,16.10
2019-05-21T02:08:45.038Z,16.10
2019-05-21T02:12:48.516Z,16.10
2019-05-21T02:16:51.962Z,16.00
2019-05-21T02:20:55.481Z,16.00
2019-05-21T02:24:59.245Z,16.00
2019-05-21T02:29:02.748Z,16.00
2019-05-21T02:33:06.230Z,16.00
2019-05-21T02:37:09.706Z,15.90
2019-05-21T02:41:13.420Z,15.80
2019-05-21T02:45:17.223Z,15.80
2019-05-21T02:49:20.677Z,15.80
2019-05-21T02:53:24.432Z,15.80
2019-05-21T02:57:40.883Z,15.80
2019-05-21T03:01:48.616Z,15.70
2019-05-21T03:05:52.354Z,15.80
2019-05-21T03:09:55.887Z,15.80
2019-05-21T03:13:59.380Z,15.80
2019-05-21T03:18:02.890Z,15.80
2019-05-21T03:22:06.454Z,15.70
2019-05-21T03:26:09.907Z,15.70
2019-05-21T03:30:13.610Z,15.70
2019-05-21T03:34:17.133Z,15.70
2019-05-21T03:38:20.952Z,15.70
2019-05-21T03:42:24.885Z,15.60
2019-05-21T03:46:28.670Z,15.60
2019-05-21T03:50:32.198Z,15.60
2019-05-21T03:54:35.670Z,15.60
2019-05-21T03:58:39.143Z,15.60
2019-05-21T04:02:42.978Z,15.60
2019-05-21T04:06:51.784Z,15.60
2019-05-21T04:10:51.927Z,15.60
2019-05-21T04:15:00.060Z,15.60
2019-05-21T04:19:16.943Z,15.50
2019-05-21T04:23:20.423Z,15.60
2019-05-21T04:27:23.959Z,15.60
2019-05-21T04:31:27.471Z,15.60
2019-05-21T04:35:30.946Z,15.60
2019-05-21T04:39:34.712Z,15.60
2019-05-21T04:43:38.478Z,15.60
2019-05-21T04:47:41.968Z,15.60
2019-05-21T04:51:45.424Z,15.60
2019-05-21T04:55:48.904Z,15.60
2019-05-21T04:59:52.390Z,15.60
2019-05-21T05:03:55.865Z,15.60
2019-05-21T05:08:02.379Z,15.60
2019-05-21T05:12:05.910Z,15.50
2019-05-21T05:16:13.609Z,15.50
2019-05-21T05:20:17.267Z,15.60
2019-05-21T05:24:20.713Z,15.50
2019-05-21T05:28:24.447Z,15.50
2019-05-21T05:32:27.901Z,15.50
2019-05-21T05:36:31.375Z,15.60
2019-05-21T05:40:34.853Z,15.60
2019-05-21T05:44:38.754Z,15.60
2019-05-21T05:48:43.872Z,15.60
2019-05-21T05:52:47.331Z,15.60
2019-05-21T05:56:52.898Z,15.60
2019-05-21T06:00:56.372Z,15.60
2019-05-21T06:05:00.088Z,15.60
2019-05-21T06:09:04.990Z,15.60
2019-05-21T06:13:08.785Z,15.70
2019-05-21T06:17:12.266Z,15.60
2019-05-21T06:21:15.804Z,15.60
2019-05-21T06:25:19.736Z,15.60
2019-05-21T06:29:23.610Z,15.60
2019-05-21T06:33:27.505Z,15.50
2019-05-21T06:37:33.624Z,15.60
2019-05-21T06:41:37.250Z,15.60
2019-05-21T06:45:41.261Z,15.60
2019-05-21T06:49:45.839Z,15.70
2019-05-21T06:53:51.925Z,15.70
2019-05-21T06:57:57.131Z,15.70
2019-05-21T07:02:00.928Z,15.70
2019-05-21T07:06:04.461Z,15.70
2019-05-21T07:10:08.474Z,15.70
2019-05-21T07:14:12.248Z,15.70
2019-05-21T07:18:15.951Z,15.60
2019-05-21T07:22:19.466Z,15.60
2019-05-21T07:26:22.927Z,15.60
2019-05-21T07:30:26.478Z,15.60
2019-05-21T07:34:30.216Z,15.60
2019-05-21T07:38:51.562Z,15.60
2019-05-21T07:42:39.253Z,15.60
2019-05-21T07:46:43.036Z,15.60
2019-05-21T07:50:46.767Z,15.60
2019-05-21T07:54:50.218Z,15.60
2019-05-21T07:58:53.974Z,15.60
2019-05-21T08:02:57.438Z,15.70
2019-05-21T08:07:01.150Z,15.70
2019-05-21T08:11:04.772Z,15.80
2019-05-21T08:15:08.957Z,15.80
2019-05-21T08:19:12.586Z,15.80
2019-05-21T08:23:16.294Z,15.80
2019-05-21T08:27:19.830Z,15.90
2019-05-21T08:31:23.282Z,15.80
2019-05-21T08:35:27.004Z,15.80
2019-05-21T08:39:30.473Z,15.90
2019-05-21T08:43:33.942Z,15.90
2019-05-21T08:47:37.715Z,16.00
2019-05-21T08:51:41.176Z,16.00
2019-05-21T08:55:44.694Z,16.00
2019-05-21T08:59:48.354Z,16.00
2019-05-21T09:03:51.850Z,16.00
2019-05-21T09:07:55.674Z,16.00
2019-05-21T09:11:59.493Z,16.10
2019-05-21T09:16:05.805Z,16.20
2019-05-21T09:20:11.060Z,16.10
2019-05-21T09:24:14.621Z,16.10
2019-05-21T09:28:18.142Z,16.10
2019-05-21T09:32:21.640Z,16.20
2019-05-21T09:36:25.435Z,16.20
2019-05-21T09:40:29.814Z,16.20
2019-05-21T09:44:33.339Z,16.20
2019-05-21T09:48:36.836Z,16.20
2019-05-21T09:52:40.280Z,16.20
2019-05-21T09:56:43.739Z,16.10
2019-05-21T10:01:00.817Z,16.10
2019-05-21T10:05:06.397Z,16.10
2019-05-21T10:09:11.930Z,16.10
2019-05-21T10:13:15.395Z,16.00
2019-05-21T10:17:18.864Z,15.90
2019-05-21T10:21:22.632Z,15.90
2019-05-21T10:25:26.175Z,15.90
2019-05-21T10:29:29.663Z,15.90
2019-05-21T10:33:33.476Z,15.90
2019-05-21T10:37:36.934Z,15.80
2019-05-21T10:41:40.405Z,15.90
2019-05-21T10:45:44.118Z,15.90
2019-05-21T10:49:47.594Z,16.00
2019-05-21T10:53:51.180Z,16.00
2019-05-21T10:57:54.811Z,16.00
2019-05-21T11:02:05.651Z,16.00
2019-05-21T11:06:10.656Z,16.00
2019-05-21T11:10:14.529Z,16.00
2019-05-21T11:14:18.025Z,16.00
2019-05-21T11:18:21.688Z,16.10
2019-05-21T11:22:25.142Z,16.10
2019-05-21T11:26:28.884Z,16.30
2019-05-21T11:30:32.800Z,16.30
2019-05-21T11:34:36.356Z,16.30
2019-05-21T11:38:40.558Z,16.30
2019-05-21T11:42:44.335Z,16.30
2019-05-21T11:46:47.880Z,16.30
2019-05-21T11:50:51.350Z,16.40
2019-05-21T11:54:55.997Z,16.40
2019-05-21T11:58:59.908Z,16.40
2019-05-21T12:03:03.727Z,16.30
2019-05-21T12:07:07.535Z,16.20
2019-05-21T12:11:11.177Z,16.10
2019-05-21T12:15:15.406Z,15.90
2019-05-21T12:19:19.215Z,15.90
2019-05-21T12:23:22.733Z,15.90
2019-05-21T12:27:28.047Z,15.90
2019-05-21T12:31:31.888Z,16.00
2019-05-21T12:35:35.388Z,15.80
2019-05-21T12:39:38.856Z,15.70
2019-05-21T12:43:42.322Z,15.70
2019-05-21T12:47:46.196Z,15.60
2019-05-21T12:51:49.661Z,15.70
2019-05-21T12:55:53.118Z,15.70
2019-05-21T12:59:56.595Z,15.80
2019-05-21T13:04:00.039Z,15.90
2019-05-21T13:08:03.602Z,15.80
2019-05-21T13:12:07.190Z,15.80
2019-05-21T13:16:10.662Z,15.80
2019-05-21T13:20:14.895Z,15.80
2019-05-21T13:24:18.475Z,15.80
2019-05-21T13:28:21.998Z,15.80
2019-05-21T13:32:25.542Z,16.00
2019-05-21T13:36:29.854Z,16.00
2019-05-21T13:40:34.600Z,16.10
2019-05-21T13:44:38.049Z,16.10
2019-05-21T13:48:41.520Z,16.10
2019-05-21T13:52:45.054Z,16.00
2019-05-21T13:56:48.771Z,16.00
2019-05-21T14:00:54.150Z,16.00
2019-05-21T14:04:57.602Z,16.10
2019-05-21T14:09:01.130Z,16.10
2019-05-21T14:13:04.875Z,16.10
2019-05-21T14:17:08.652Z,16.10
2019-05-21T14:21:12.457Z,16.10
2019-05-21T14:25:15.979Z,16.10
2019-05-21T14:29:19.757Z,16.10
2019-05-21T14:33:23.296Z,16.20
2019-05-21T14:37:26.762Z,16.20
2019-05-21T14:41:30.487Z,16.30
2019-05-21T14:45:34.737Z,16.20
2019-05-21T14:49:38.258Z,16.20
2019-05-21T14:53:41.815Z,16.20
2019-05-21T14:57:45.366Z,16.20
2019-05-21T15:01:49.102Z,16.10
2019-05-21T15:05:52.574Z,16.10
2019-05-21T15:09:56.406Z,16.00
2019-05-21T15:13:59.876Z,15.90
2019-05-21T15:18:03.409Z,15.80
2019-05-21T15:22:06.879Z,15.60
2019-05-21T15:26:10.629Z,15.60
2019-05-21T15:30:14.476Z,15.40
2019-05-21T15:34:18.010Z,15.20
2019-05-21T15:38:21.472Z,15.10
2019-05-21T15:42:25.199Z,15.10
2019-05-21T15:46:45.461Z,15.10
2019-05-21T15:50:33.964Z,15.00
2019-05-21T15:54:37.503Z,15.00
2019-05-21T15:58:41.244Z,15.00
2019-05-21T16:02:44.847Z,15.10
2019-05-21T16:06:48.370Z,15.00
2019-05-21T16:10:52.179Z,15.00
2019-05-21T16:14:56.586Z,15.00
2019-05-21T16:19:00.076Z,14.90
2019-05-21T16:23:03.553Z,15.00
2019-05-21T16:27:07.019Z,15.00
2019-05-21T16:31:10.468Z,15.00
2019-05-21T16:35:14.320Z,14.90
2019-05-21T16:39:19.438Z,14.90
2019-05-21T16:43:23.264Z,14.80
2019-05-21T16:47:43.925Z,14.80
2019-05-21T16:51:34.650Z,14.80
2019-05-21T16:55:38.296Z,14.70
2019-05-21T16:59:42.124Z,14.70
2019-05-21T17:03:59.156Z,14.70
2019-05-21T17:07:50.781Z,14.60
2019-05-21T17:12:00.172Z,14.60
2019-05-21T17:15:59.390Z,14.60
2019-05-21T17:20:03.760Z,14.60
2019-05-21T17:24:07.296Z,14.60
2019-05-21T17:28:10.810Z,14.60
2019-05-21T17:32:14.402Z,14.50
2019-05-21T17:36:17.862Z,14.40
2019-05-21T17:40:21.392Z,14.30
2019-05-21T17:44:25.047Z,14.30
2019-05-21T17:48:28.527Z,14.30
2019-05-21T17:52:32.255Z,14.30
2019-05-21T17:56:35.715Z,14.20
2019-05-21T18:00:49.540Z,14.20
2019-05-21T18:04:53.412Z,14.10
2019-05-21T18:08:56.880Z,14.10
2019-05-21T18:13:00.333Z,14.10
2019-05-21T18:17:05.193Z,14.00
2019-05-21T18:21:09.140Z,14.00
2019-05-21T18:25:14.182Z,14.00
2019-05-21T18:29:17.998Z,13.90
2019-05-21T18:33:21.511Z,13.90
2019-05-21T18:37:26.960Z,13.80
2019-05-21T18:41:30.534Z,13.70
2019-05-21T18:45:34.324Z,13.70
2019-05-21T18:49:37.767Z,13.70
2019-05-21T18:53:41.257Z,13.60
2019-05-21T18:57:44.910Z,13.60
2019-05-21T19:01:48.658Z,13.50
2019-05-21T19:05:52.193Z,13.50
2019-05-21T19:09:56.375Z,13.50
2019-05-21T19:13:59.822Z,13.50
2019-05-21T19:18:03.290Z,13.50
2019-05-21T19:22:07.082Z,13.40
2019-05-21T19:26:10.629Z,13.40
2019-05-21T19:30:15.227Z,13.40
2019-05-21T19:34:18.686Z,13.40
2019-05-21T19:38:22.162Z,13.40
2019-05-21T19:42:25.675Z,13.30
2019-05-21T19:46:29.436Z,13.30
2019-05-21T19:50:33.485Z,13.30
2019-05-21T19:54:36.946Z,13.20
2019-05-21T19:58:40.421Z,13.20
2019-05-21T20:02:44.175Z,13.20
2019-05-21T20:06:47.645Z,13.20
2019-05-21T20:10:51.447Z,13.10
2019-05-21T20:14:55.113Z,13.10
2019-05-21T20:18:58.836Z,13.10
2019-05-21T20:23:02.738Z,13.00
2019-05-21T20:27:07.534Z,13.00
2019-05-21T20:31:11.068Z,13.00
2019-05-21T20:35:16.168Z,13.00
2019-05-21T20:39:19.874Z,13.00
2019-05-21T20:43:24.318Z,13.00
2019-05-21T20:47:27.785Z,12.90
2019-05-21T20:51:31.853Z,12.90
2019-05-21T20:55:35.852Z,12.90
2019-05-21T20:59:39.550Z,12.90
2019-05-21T21:03:43.099Z,12.90
2019-05-21T21:07:46.688Z,12.90
2019-05-21T21:11:50.469Z,12.90
2019-05-21T21:15:54.675Z,12.90
2019-05-21T21:19:58.219Z,12.90
2019-05-21T21:24:02.228Z,12.80
2019-05-21T21:28:05.697Z,12.80
2019-05-21T21:32:09.501Z,12.80
2019-05-21T21:36:13.789Z,12.80
2019-05-21T21:40:18.483Z,12.80
2019-05-21T21:44:33.456Z,12.70
2019-05-21T21:48:29.031Z,12.70
2019-05-21T21:52:32.975Z,12.70
2019-05-21T21:56:36.527Z,12.60
2019-05-21T22:00:59.338Z,12.60
2019-05-21T22:05:03.348Z,12.50
2019-05-21T22:09:08.507Z,12.50
2019-05-21T22:13:13.075Z,12.40
2019-05-21T22:17:18.201Z,12.40
2019-05-21T22:21:22.362Z,12.40
2019-05-21T22:25:25.953Z,12.30
2019-05-21T22:29:29.459Z,12.30
2019-05-21T22:33:33.658Z,12.20
2019-05-21T22:37:37.131Z,12.20
2019-05-21T22:41:40.642Z,12.20
2019-05-21T22:45:44.189Z,12.10
2019-05-21T22:49:47.638Z,12.10
2019-05-21T22:53:51.458Z,12.10
2019-05-21T22:57:55.134Z,12.10
2019-05-21T23:01:59.088Z,11.90
2019-05-21T23:06:02.923Z,11.80
2019-05-21T23:10:08.161Z,11.80
2019-05-21T23:14:12.013Z,11.70
2019-05-21T23:18:15.552Z,11.70
2019-05-21T23:22:21.886Z,11.70
2019-05-21T23:26:25.338Z,11.70
2019-05-21T23:30:29.115Z,11.70
2019-05-21T23:34:32.573Z,11.70
2019-05-21T23:38:36.933Z,11.60
2019-05-21T23:42:42.033Z,11.60
2019-05-21T23:46:45.627Z,11.60
2019-05-21T23:50:49.097Z,11.60
2019-05-21T23:54:52.827Z,11.60
2019-05-21T23:58:56.723Z,11.60
